<?xml version="1.0" encoding="UTF-8" standalone="no" ?>
<gpx xmlns="http://www.topografix.com/GPX/1/1" xmlns:xsi="http://www.w3.org/2001/XMLSchema-instance" xsi:schemaLocation="http://www.topografix.com/GPX/1/1 http://www.topografix.com/GPX/1/1/gpx.xsd" version="1.1" creator="VisuGPX - https://www.visugpx.com">
  <metadata>
    <name>co montagne d\'age</name>
    <desc><![CDATA[course d\'orintation organisé par ASO]]></desc>
  </metadata>
  <trk>
    <name><![CDATA[co montagne d'age]]></name>
    <desc><![CDATA[2 belles erreurs, et pas un rythme de malade. moyen +]]></desc>
    <trkseg>
      <trkpt lat="45.93593" lon="6.05599">
        <ele>634.59997558594</ele>
        <time>2013-05-04T13:59:21.000Z</time>
      </trkpt>
      <trkpt lat="45.93593" lon="6.05596">
        <ele>641.20001220703</ele>
        <time>2013-05-04T13:59:23.000Z</time>
      </trkpt>
      <trkpt lat="45.93582" lon="6.05589">
        <ele>637</ele>
        <time>2013-05-04T13:59:28.000Z</time>
      </trkpt>
      <trkpt lat="45.93577" lon="6.05584">
        <ele>640.20001220703</ele>
        <time>2013-05-04T13:59:32.000Z</time>
      </trkpt>
      <trkpt lat="45.93576" lon="6.0557">
        <ele>632.20001220703</ele>
        <time>2013-05-04T13:59:36.000Z</time>
      </trkpt>
      <trkpt lat="45.93578" lon="6.05551">
        <ele>629.79998779297</ele>
        <time>2013-05-04T13:59:41.000Z</time>
      </trkpt>
      <trkpt lat="45.93584" lon="6.05535">
        <ele>640.79998779297</ele>
        <time>2013-05-04T13:59:46.000Z</time>
      </trkpt>
      <trkpt lat="45.93585" lon="6.05515">
        <ele>644.59997558594</ele>
        <time>2013-05-04T13:59:51.000Z</time>
      </trkpt>
      <trkpt lat="45.93581" lon="6.05506">
        <ele>644.20001220703</ele>
        <time>2013-05-04T13:59:54.000Z</time>
      </trkpt>
      <trkpt lat="45.93572" lon="6.05494">
        <ele>649</ele>
        <time>2013-05-04T13:59:58.000Z</time>
      </trkpt>
      <trkpt lat="45.93571" lon="6.05492">
        <ele>651.40002441406</ele>
        <time>2013-05-04T13:59:59.000Z</time>
      </trkpt>
      <trkpt lat="45.93567" lon="6.05472">
        <ele>649.40002441406</ele>
        <time>2013-05-04T14:00:05.000Z</time>
      </trkpt>
      <trkpt lat="45.93561" lon="6.05465">
        <ele>647.40002441406</ele>
        <time>2013-05-04T14:00:08.000Z</time>
      </trkpt>
      <trkpt lat="45.93561" lon="6.05449">
        <ele>650.40002441406</ele>
        <time>2013-05-04T14:00:13.000Z</time>
      </trkpt>
      <trkpt lat="45.93575" lon="6.05434">
        <ele>648.40002441406</ele>
        <time>2013-05-04T14:00:19.000Z</time>
      </trkpt>
      <trkpt lat="45.93587" lon="6.05419">
        <ele>646</ele>
        <time>2013-05-04T14:00:24.000Z</time>
      </trkpt>
      <trkpt lat="45.93596" lon="6.05405">
        <ele>644.59997558594</ele>
        <time>2013-05-04T14:00:28.000Z</time>
      </trkpt>
      <trkpt lat="45.93602" lon="6.05385">
        <ele>639.79998779297</ele>
        <time>2013-05-04T14:00:34.000Z</time>
      </trkpt>
      <trkpt lat="45.93611" lon="6.0537">
        <ele>636.40002441406</ele>
        <time>2013-05-04T14:00:39.000Z</time>
      </trkpt>
      <trkpt lat="45.93613" lon="6.05368">
        <ele>635.40002441406</ele>
        <time>2013-05-04T14:00:40.000Z</time>
      </trkpt>
      <trkpt lat="45.93616" lon="6.05363">
        <ele>634</ele>
        <time>2013-05-04T14:00:42.000Z</time>
      </trkpt>
      <trkpt lat="45.93626" lon="6.0534">
        <ele>625.79998779297</ele>
        <time>2013-05-04T14:00:48.000Z</time>
      </trkpt>
      <trkpt lat="45.93638" lon="6.05318">
        <ele>619.59997558594</ele>
        <time>2013-05-04T14:00:54.000Z</time>
      </trkpt>
      <trkpt lat="45.93646" lon="6.05316">
        <ele>616.79998779297</ele>
        <time>2013-05-04T14:00:59.000Z</time>
      </trkpt>
      <trkpt lat="45.93647" lon="6.05314">
        <ele>616.79998779297</ele>
        <time>2013-05-04T14:01:02.000Z</time>
      </trkpt>
      <trkpt lat="45.93644" lon="6.05315">
        <ele>618.20001220703</ele>
        <time>2013-05-04T14:01:04.000Z</time>
      </trkpt>
      <trkpt lat="45.93644" lon="6.05306">
        <ele>620</ele>
        <time>2013-05-04T14:01:08.000Z</time>
      </trkpt>
      <trkpt lat="45.93652" lon="6.05296">
        <ele>622.40002441406</ele>
        <time>2013-05-04T14:01:12.000Z</time>
      </trkpt>
      <trkpt lat="45.93663" lon="6.05278">
        <ele>622</ele>
        <time>2013-05-04T14:01:17.000Z</time>
      </trkpt>
      <trkpt lat="45.93664" lon="6.05277">
        <ele>623</ele>
        <time>2013-05-04T14:01:18.000Z</time>
      </trkpt>
      <trkpt lat="45.93671" lon="6.05284">
        <ele>623</ele>
        <time>2013-05-04T14:01:23.000Z</time>
      </trkpt>
      <trkpt lat="45.93675" lon="6.05285">
        <ele>622</ele>
        <time>2013-05-04T14:01:25.000Z</time>
      </trkpt>
      <trkpt lat="45.9368" lon="6.05287">
        <ele>621.59997558594</ele>
        <time>2013-05-04T14:01:28.000Z</time>
      </trkpt>
      <trkpt lat="45.93693" lon="6.05284">
        <ele>623</ele>
        <time>2013-05-04T14:01:34.000Z</time>
      </trkpt>
      <trkpt lat="45.93699" lon="6.05286">
        <ele>621</ele>
        <time>2013-05-04T14:01:37.000Z</time>
      </trkpt>
      <trkpt lat="45.93709" lon="6.05287">
        <ele>621</ele>
        <time>2013-05-04T14:01:42.000Z</time>
      </trkpt>
      <trkpt lat="45.93724" lon="6.05282">
        <ele>623</ele>
        <time>2013-05-04T14:01:47.000Z</time>
      </trkpt>
      <trkpt lat="45.93732" lon="6.05276">
        <ele>620</ele>
        <time>2013-05-04T14:01:51.000Z</time>
      </trkpt>
      <trkpt lat="45.93736" lon="6.05277">
        <ele>619.20001220703</ele>
        <time>2013-05-04T14:01:56.000Z</time>
      </trkpt>
      <trkpt lat="45.93741" lon="6.05293">
        <ele>619.20001220703</ele>
        <time>2013-05-04T14:02:01.000Z</time>
      </trkpt>
      <trkpt lat="45.93743" lon="6.05303">
        <ele>622.40002441406</ele>
        <time>2013-05-04T14:02:04.000Z</time>
      </trkpt>
      <trkpt lat="45.93742" lon="6.05315">
        <ele>624</ele>
        <time>2013-05-04T14:02:10.000Z</time>
      </trkpt>
      <trkpt lat="45.9374" lon="6.05328">
        <ele>624</ele>
        <time>2013-05-04T14:02:15.000Z</time>
      </trkpt>
      <trkpt lat="45.9374" lon="6.05324">
        <ele>623.40002441406</ele>
        <time>2013-05-04T14:02:17.000Z</time>
      </trkpt>
      <trkpt lat="45.93741" lon="6.0532">
        <ele>623.40002441406</ele>
        <time>2013-05-04T14:02:19.000Z</time>
      </trkpt>
      <trkpt lat="45.93744" lon="6.05309">
        <ele>625.40002441406</ele>
        <time>2013-05-04T14:02:23.000Z</time>
      </trkpt>
      <trkpt lat="45.93755" lon="6.05285">
        <ele>624.40002441406</ele>
        <time>2013-05-04T14:02:30.000Z</time>
      </trkpt>
      <trkpt lat="45.93753" lon="6.05279">
        <ele>624.40002441406</ele>
        <time>2013-05-04T14:02:33.000Z</time>
      </trkpt>
      <trkpt lat="45.93752" lon="6.05276">
        <ele>623</ele>
        <time>2013-05-04T14:02:36.000Z</time>
      </trkpt>
      <trkpt lat="45.93749" lon="6.05265">
        <ele>621</ele>
        <time>2013-05-04T14:02:41.000Z</time>
      </trkpt>
      <trkpt lat="45.93747" lon="6.05259">
        <ele>620</ele>
        <time>2013-05-04T14:02:47.000Z</time>
      </trkpt>
      <trkpt lat="45.93742" lon="6.05257">
        <ele>621</ele>
        <time>2013-05-04T14:02:52.000Z</time>
      </trkpt>
      <trkpt lat="45.93739" lon="6.05252">
        <ele>625.79998779297</ele>
        <time>2013-05-04T14:02:59.000Z</time>
      </trkpt>
      <trkpt lat="45.93727" lon="6.05254">
        <ele>625.79998779297</ele>
        <time>2013-05-04T14:03:05.000Z</time>
      </trkpt>
      <trkpt lat="45.93724" lon="6.05251">
        <ele>621</ele>
        <time>2013-05-04T14:03:09.000Z</time>
      </trkpt>
      <trkpt lat="45.93718" lon="6.05247">
        <ele>621.59997558594</ele>
        <time>2013-05-04T14:03:17.000Z</time>
      </trkpt>
      <trkpt lat="45.9371" lon="6.0525">
        <ele>621.59997558594</ele>
        <time>2013-05-04T14:03:21.000Z</time>
      </trkpt>
      <trkpt lat="45.937" lon="6.05251">
        <ele>620</ele>
        <time>2013-05-04T14:03:25.000Z</time>
      </trkpt>
      <trkpt lat="45.93691" lon="6.05254">
        <ele>620</ele>
        <time>2013-05-04T14:03:29.000Z</time>
      </trkpt>
      <trkpt lat="45.93689" lon="6.05257">
        <ele>621</ele>
        <time>2013-05-04T14:03:30.000Z</time>
      </trkpt>
      <trkpt lat="45.93679" lon="6.05266">
        <ele>621.59997558594</ele>
        <time>2013-05-04T14:03:35.000Z</time>
      </trkpt>
      <trkpt lat="45.93671" lon="6.05281">
        <ele>621.59997558594</ele>
        <time>2013-05-04T14:03:40.000Z</time>
      </trkpt>
      <trkpt lat="45.93666" lon="6.05285">
        <ele>620.59997558594</ele>
        <time>2013-05-04T14:03:42.000Z</time>
      </trkpt>
      <trkpt lat="45.93655" lon="6.05294">
        <ele>619.59997558594</ele>
        <time>2013-05-04T14:03:48.000Z</time>
      </trkpt>
      <trkpt lat="45.93654" lon="6.05297">
        <ele>620</ele>
        <time>2013-05-04T14:03:51.000Z</time>
      </trkpt>
      <trkpt lat="45.93652" lon="6.05299">
        <ele>620</ele>
        <time>2013-05-04T14:03:53.000Z</time>
      </trkpt>
      <trkpt lat="45.93647" lon="6.05304">
        <ele>620</ele>
        <time>2013-05-04T14:03:57.000Z</time>
      </trkpt>
      <trkpt lat="45.93637" lon="6.05303">
        <ele>619.20001220703</ele>
        <time>2013-05-04T14:04:01.000Z</time>
      </trkpt>
      <trkpt lat="45.93622" lon="6.05295">
        <ele>618.59997558594</ele>
        <time>2013-05-04T14:04:07.000Z</time>
      </trkpt>
      <trkpt lat="45.93613" lon="6.05292">
        <ele>619.20001220703</ele>
        <time>2013-05-04T14:04:11.000Z</time>
      </trkpt>
      <trkpt lat="45.93594" lon="6.05288">
        <ele>622</ele>
        <time>2013-05-04T14:04:17.000Z</time>
      </trkpt>
      <trkpt lat="45.93589" lon="6.05285">
        <ele>623</ele>
        <time>2013-05-04T14:04:19.000Z</time>
      </trkpt>
      <trkpt lat="45.93589" lon="6.05274">
        <ele>624.79998779297</ele>
        <time>2013-05-04T14:04:23.000Z</time>
      </trkpt>
      <trkpt lat="45.93588" lon="6.05265">
        <ele>626.79998779297</ele>
        <time>2013-05-04T14:04:26.000Z</time>
      </trkpt>
      <trkpt lat="45.93588" lon="6.0524">
        <ele>630.20001220703</ele>
        <time>2013-05-04T14:04:32.000Z</time>
      </trkpt>
      <trkpt lat="45.93573" lon="6.05233">
        <ele>631.59997558594</ele>
        <time>2013-05-04T14:04:39.000Z</time>
      </trkpt>
      <trkpt lat="45.93566" lon="6.05226">
        <ele>633</ele>
        <time>2013-05-04T14:04:42.000Z</time>
      </trkpt>
      <trkpt lat="45.93547" lon="6.05222">
        <ele>633</ele>
        <time>2013-05-04T14:04:47.000Z</time>
      </trkpt>
      <trkpt lat="45.93535" lon="6.05224">
        <ele>632.20001220703</ele>
        <time>2013-05-04T14:04:51.000Z</time>
      </trkpt>
      <trkpt lat="45.93528" lon="6.0522">
        <ele>632.59997558594</ele>
        <time>2013-05-04T14:04:56.000Z</time>
      </trkpt>
      <trkpt lat="45.93524" lon="6.05215">
        <ele>634</ele>
        <time>2013-05-04T14:05:00.000Z</time>
      </trkpt>
      <trkpt lat="45.93516" lon="6.05216">
        <ele>632.59997558594</ele>
        <time>2013-05-04T14:05:05.000Z</time>
      </trkpt>
      <trkpt lat="45.93514" lon="6.05216">
        <ele>631.20001220703</ele>
        <time>2013-05-04T14:05:06.000Z</time>
      </trkpt>
      <trkpt lat="45.93511" lon="6.05214">
        <ele>632.20001220703</ele>
        <time>2013-05-04T14:05:10.000Z</time>
      </trkpt>
      <trkpt lat="45.93503" lon="6.05206">
        <ele>635.40002441406</ele>
        <time>2013-05-04T14:05:15.000Z</time>
      </trkpt>
      <trkpt lat="45.93499" lon="6.05204">
        <ele>636</ele>
        <time>2013-05-04T14:05:18.000Z</time>
      </trkpt>
      <trkpt lat="45.93495" lon="6.05212">
        <ele>636</ele>
        <time>2013-05-04T14:05:21.000Z</time>
      </trkpt>
      <trkpt lat="45.93491" lon="6.05232">
        <ele>638.40002441406</ele>
        <time>2013-05-04T14:05:26.000Z</time>
      </trkpt>
      <trkpt lat="45.93486" lon="6.05257">
        <ele>643.20001220703</ele>
        <time>2013-05-04T14:05:30.000Z</time>
      </trkpt>
      <trkpt lat="45.93481" lon="6.05271">
        <ele>646</ele>
        <time>2013-05-04T14:05:34.000Z</time>
      </trkpt>
      <trkpt lat="45.93482" lon="6.05276">
        <ele>651.79998779297</ele>
        <time>2013-05-04T14:05:39.000Z</time>
      </trkpt>
      <trkpt lat="45.93482" lon="6.05283">
        <ele>653.79998779297</ele>
        <time>2013-05-04T14:05:43.000Z</time>
      </trkpt>
      <trkpt lat="45.93481" lon="6.05293">
        <ele>653.79998779297</ele>
        <time>2013-05-04T14:05:48.000Z</time>
      </trkpt>
      <trkpt lat="45.93477" lon="6.0531">
        <ele>655.20001220703</ele>
        <time>2013-05-04T14:05:52.000Z</time>
      </trkpt>
      <trkpt lat="45.93464" lon="6.05321">
        <ele>654.59997558594</ele>
        <time>2013-05-04T14:05:57.000Z</time>
      </trkpt>
      <trkpt lat="45.9345" lon="6.05316">
        <ele>650.40002441406</ele>
        <time>2013-05-04T14:06:01.000Z</time>
      </trkpt>
      <trkpt lat="45.9344" lon="6.0532">
        <ele>648</ele>
        <time>2013-05-04T14:06:05.000Z</time>
      </trkpt>
      <trkpt lat="45.93428" lon="6.05327">
        <ele>645.59997558594</ele>
        <time>2013-05-04T14:06:09.000Z</time>
      </trkpt>
      <trkpt lat="45.9342" lon="6.05329">
        <ele>645.59997558594</ele>
        <time>2013-05-04T14:06:12.000Z</time>
      </trkpt>
      <trkpt lat="45.93411" lon="6.05327">
        <ele>648.40002441406</ele>
        <time>2013-05-04T14:06:18.000Z</time>
      </trkpt>
      <trkpt lat="45.93403" lon="6.05333">
        <ele>649</ele>
        <time>2013-05-04T14:06:22.000Z</time>
      </trkpt>
      <trkpt lat="45.93401" lon="6.05324">
        <ele>647.40002441406</ele>
        <time>2013-05-04T14:06:25.000Z</time>
      </trkpt>
      <trkpt lat="45.93396" lon="6.05319">
        <ele>645.59997558594</ele>
        <time>2013-05-04T14:06:27.000Z</time>
      </trkpt>
      <trkpt lat="45.93391" lon="6.05315">
        <ele>643.59997558594</ele>
        <time>2013-05-04T14:06:29.000Z</time>
      </trkpt>
      <trkpt lat="45.93378" lon="6.05311">
        <ele>641.20001220703</ele>
        <time>2013-05-04T14:06:34.000Z</time>
      </trkpt>
      <trkpt lat="45.93378" lon="6.0531">
        <ele>643.20001220703</ele>
        <time>2013-05-04T14:06:36.000Z</time>
      </trkpt>
      <trkpt lat="45.93376" lon="6.05318">
        <ele>643.20001220703</ele>
        <time>2013-05-04T14:06:39.000Z</time>
      </trkpt>
      <trkpt lat="45.93361" lon="6.05324">
        <ele>639.79998779297</ele>
        <time>2013-05-04T14:06:43.000Z</time>
      </trkpt>
      <trkpt lat="45.93351" lon="6.05314">
        <ele>636.40002441406</ele>
        <time>2013-05-04T14:06:46.000Z</time>
      </trkpt>
      <trkpt lat="45.93342" lon="6.05302">
        <ele>632.59997558594</ele>
        <time>2013-05-04T14:06:49.000Z</time>
      </trkpt>
      <trkpt lat="45.93336" lon="6.05291">
        <ele>630.20001220703</ele>
        <time>2013-05-04T14:06:51.000Z</time>
      </trkpt>
      <trkpt lat="45.9333" lon="6.05282">
        <ele>627.79998779297</ele>
        <time>2013-05-04T14:06:53.000Z</time>
      </trkpt>
      <trkpt lat="45.93316" lon="6.05258">
        <ele>623</ele>
        <time>2013-05-04T14:06:58.000Z</time>
      </trkpt>
      <trkpt lat="45.93307" lon="6.05245">
        <ele>622</ele>
        <time>2013-05-04T14:07:01.000Z</time>
      </trkpt>
      <trkpt lat="45.933" lon="6.0523">
        <ele>619.20001220703</ele>
        <time>2013-05-04T14:07:04.000Z</time>
      </trkpt>
      <trkpt lat="45.93286" lon="6.0521">
        <ele>617.20001220703</ele>
        <time>2013-05-04T14:07:09.000Z</time>
      </trkpt>
      <trkpt lat="45.93284" lon="6.05207">
        <ele>617.20001220703</ele>
        <time>2013-05-04T14:07:10.000Z</time>
      </trkpt>
      <trkpt lat="45.9327" lon="6.05184">
        <ele>613.79998779297</ele>
        <time>2013-05-04T14:07:16.000Z</time>
      </trkpt>
      <trkpt lat="45.93268" lon="6.05181">
        <ele>613.40002441406</ele>
        <time>2013-05-04T14:07:17.000Z</time>
      </trkpt>
      <trkpt lat="45.9326" lon="6.05168">
        <ele>612.40002441406</ele>
        <time>2013-05-04T14:07:21.000Z</time>
      </trkpt>
      <trkpt lat="45.9325" lon="6.05158">
        <ele>619.20001220703</ele>
        <time>2013-05-04T14:07:26.000Z</time>
      </trkpt>
      <trkpt lat="45.93246" lon="6.0515">
        <ele>621</ele>
        <time>2013-05-04T14:07:29.000Z</time>
      </trkpt>
      <trkpt lat="45.9325" lon="6.05145">
        <ele>624.79998779297</ele>
        <time>2013-05-04T14:07:33.000Z</time>
      </trkpt>
      <trkpt lat="45.93255" lon="6.05139">
        <ele>628.79998779297</ele>
        <time>2013-05-04T14:07:36.000Z</time>
      </trkpt>
      <trkpt lat="45.93268" lon="6.05134">
        <ele>631.59997558594</ele>
        <time>2013-05-04T14:07:41.000Z</time>
      </trkpt>
      <trkpt lat="45.93285" lon="6.05143">
        <ele>632.59997558594</ele>
        <time>2013-05-04T14:07:46.000Z</time>
      </trkpt>
      <trkpt lat="45.93291" lon="6.05147">
        <ele>632.59997558594</ele>
        <time>2013-05-04T14:07:50.000Z</time>
      </trkpt>
      <trkpt lat="45.93288" lon="6.05146">
        <ele>636</ele>
        <time>2013-05-04T14:07:56.000Z</time>
      </trkpt>
      <trkpt lat="45.9328" lon="6.05137">
        <ele>635</ele>
        <time>2013-05-04T14:08:00.000Z</time>
      </trkpt>
      <trkpt lat="45.93269" lon="6.05132">
        <ele>633.59997558594</ele>
        <time>2013-05-04T14:08:03.000Z</time>
      </trkpt>
      <trkpt lat="45.93257" lon="6.05129">
        <ele>633</ele>
        <time>2013-05-04T14:08:07.000Z</time>
      </trkpt>
      <trkpt lat="45.93246" lon="6.05127">
        <ele>633.59997558594</ele>
        <time>2013-05-04T14:08:10.000Z</time>
      </trkpt>
      <trkpt lat="45.93224" lon="6.05108">
        <ele>632.20001220703</ele>
        <time>2013-05-04T14:08:16.000Z</time>
      </trkpt>
      <trkpt lat="45.93233" lon="6.05091">
        <ele>635</ele>
        <time>2013-05-04T14:08:20.000Z</time>
      </trkpt>
      <trkpt lat="45.93244" lon="6.05086">
        <ele>636</ele>
        <time>2013-05-04T14:08:24.000Z</time>
      </trkpt>
      <trkpt lat="45.93256" lon="6.0508">
        <ele>638.40002441406</ele>
        <time>2013-05-04T14:08:28.000Z</time>
      </trkpt>
      <trkpt lat="45.93259" lon="6.05064">
        <ele>638.40002441406</ele>
        <time>2013-05-04T14:08:33.000Z</time>
      </trkpt>
      <trkpt lat="45.93255" lon="6.05049">
        <ele>636.40002441406</ele>
        <time>2013-05-04T14:08:36.000Z</time>
      </trkpt>
      <trkpt lat="45.93246" lon="6.0502">
        <ele>633.59997558594</ele>
        <time>2013-05-04T14:08:42.000Z</time>
      </trkpt>
      <trkpt lat="45.93242" lon="6.05012">
        <ele>633</ele>
        <time>2013-05-04T14:08:44.000Z</time>
      </trkpt>
      <trkpt lat="45.9325" lon="6.04999">
        <ele>634.59997558594</ele>
        <time>2013-05-04T14:08:48.000Z</time>
      </trkpt>
      <trkpt lat="45.93264" lon="6.04988">
        <ele>637</ele>
        <time>2013-05-04T14:08:53.000Z</time>
      </trkpt>
      <trkpt lat="45.93266" lon="6.04986">
        <ele>637.40002441406</ele>
        <time>2013-05-04T14:08:54.000Z</time>
      </trkpt>
      <trkpt lat="45.93279" lon="6.04976">
        <ele>641.79998779297</ele>
        <time>2013-05-04T14:09:00.000Z</time>
      </trkpt>
      <trkpt lat="45.93286" lon="6.04964">
        <ele>643.59997558594</ele>
        <time>2013-05-04T14:09:04.000Z</time>
      </trkpt>
      <trkpt lat="45.93292" lon="6.04956">
        <ele>646</ele>
        <time>2013-05-04T14:09:08.000Z</time>
      </trkpt>
      <trkpt lat="45.93299" lon="6.04946">
        <ele>648.40002441406</ele>
        <time>2013-05-04T14:09:12.000Z</time>
      </trkpt>
      <trkpt lat="45.93302" lon="6.04941">
        <ele>649</ele>
        <time>2013-05-04T14:09:14.000Z</time>
      </trkpt>
      <trkpt lat="45.93315" lon="6.04921">
        <ele>649.40002441406</ele>
        <time>2013-05-04T14:09:20.000Z</time>
      </trkpt>
      <trkpt lat="45.93322" lon="6.04905">
        <ele>647.40002441406</ele>
        <time>2013-05-04T14:09:24.000Z</time>
      </trkpt>
      <trkpt lat="45.93326" lon="6.04881">
        <ele>646</ele>
        <time>2013-05-04T14:09:29.000Z</time>
      </trkpt>
      <trkpt lat="45.93327" lon="6.04859">
        <ele>644.20001220703</ele>
        <time>2013-05-04T14:09:33.000Z</time>
      </trkpt>
      <trkpt lat="45.93332" lon="6.04832">
        <ele>642.20001220703</ele>
        <time>2013-05-04T14:09:38.000Z</time>
      </trkpt>
      <trkpt lat="45.93328" lon="6.04813">
        <ele>639.79998779297</ele>
        <time>2013-05-04T14:09:42.000Z</time>
      </trkpt>
      <trkpt lat="45.9332" lon="6.04806">
        <ele>639.40002441406</ele>
        <time>2013-05-04T14:09:45.000Z</time>
      </trkpt>
      <trkpt lat="45.93318" lon="6.04803">
        <ele>638.79998779297</ele>
        <time>2013-05-04T14:09:46.000Z</time>
      </trkpt>
      <trkpt lat="45.93308" lon="6.0479">
        <ele>636</ele>
        <time>2013-05-04T14:09:50.000Z</time>
      </trkpt>
      <trkpt lat="45.933" lon="6.04782">
        <ele>634.59997558594</ele>
        <time>2013-05-04T14:09:55.000Z</time>
      </trkpt>
      <trkpt lat="45.93288" lon="6.04787">
        <ele>637.40002441406</ele>
        <time>2013-05-04T14:10:01.000Z</time>
      </trkpt>
      <trkpt lat="45.9328" lon="6.04787">
        <ele>637.40002441406</ele>
        <time>2013-05-04T14:10:04.000Z</time>
      </trkpt>
      <trkpt lat="45.93266" lon="6.04786">
        <ele>638.79998779297</ele>
        <time>2013-05-04T14:10:09.000Z</time>
      </trkpt>
      <trkpt lat="45.93252" lon="6.04781">
        <ele>639.79998779297</ele>
        <time>2013-05-04T14:10:14.000Z</time>
      </trkpt>
      <trkpt lat="45.93238" lon="6.04782">
        <ele>642.59997558594</ele>
        <time>2013-05-04T14:10:19.000Z</time>
      </trkpt>
      <trkpt lat="45.93223" lon="6.04777">
        <ele>647</ele>
        <time>2013-05-04T14:10:24.000Z</time>
      </trkpt>
      <trkpt lat="45.93214" lon="6.0477">
        <ele>646.59997558594</ele>
        <time>2013-05-04T14:10:27.000Z</time>
      </trkpt>
      <trkpt lat="45.93191" lon="6.04757">
        <ele>647.40002441406</ele>
        <time>2013-05-04T14:10:34.000Z</time>
      </trkpt>
      <trkpt lat="45.93172" lon="6.04751">
        <ele>654.59997558594</ele>
        <time>2013-05-04T14:10:40.000Z</time>
      </trkpt>
      <trkpt lat="45.93151" lon="6.04751">
        <ele>659</ele>
        <time>2013-05-04T14:10:45.000Z</time>
      </trkpt>
      <trkpt lat="45.93137" lon="6.04742">
        <ele>656.59997558594</ele>
        <time>2013-05-04T14:10:49.000Z</time>
      </trkpt>
      <trkpt lat="45.93129" lon="6.0473">
        <ele>655.20001220703</ele>
        <time>2013-05-04T14:10:53.000Z</time>
      </trkpt>
      <trkpt lat="45.93127" lon="6.04727">
        <ele>655.59997558594</ele>
        <time>2013-05-04T14:10:54.000Z</time>
      </trkpt>
      <trkpt lat="45.93123" lon="6.04719">
        <ele>659</ele>
        <time>2013-05-04T14:10:59.000Z</time>
      </trkpt>
      <trkpt lat="45.9312" lon="6.04715">
        <ele>657</ele>
        <time>2013-05-04T14:11:03.000Z</time>
      </trkpt>
      <trkpt lat="45.9312" lon="6.04708">
        <ele>657.59997558594</ele>
        <time>2013-05-04T14:11:07.000Z</time>
      </trkpt>
      <trkpt lat="45.93119" lon="6.04702">
        <ele>657.59997558594</ele>
        <time>2013-05-04T14:11:12.000Z</time>
      </trkpt>
      <trkpt lat="45.93124" lon="6.04698">
        <ele>648.40002441406</ele>
        <time>2013-05-04T14:11:39.000Z</time>
      </trkpt>
      <trkpt lat="45.93111" lon="6.04691">
        <ele>640.20001220703</ele>
        <time>2013-05-04T14:11:45.000Z</time>
      </trkpt>
      <trkpt lat="45.93102" lon="6.04681">
        <ele>637.40002441406</ele>
        <time>2013-05-04T14:11:49.000Z</time>
      </trkpt>
      <trkpt lat="45.93099" lon="6.04666">
        <ele>636</ele>
        <time>2013-05-04T14:11:52.000Z</time>
      </trkpt>
      <trkpt lat="45.93109" lon="6.04649">
        <ele>641.79998779297</ele>
        <time>2013-05-04T14:11:57.000Z</time>
      </trkpt>
      <trkpt lat="45.93119" lon="6.04633">
        <ele>647</ele>
        <time>2013-05-04T14:12:02.000Z</time>
      </trkpt>
      <trkpt lat="45.93129" lon="6.04626">
        <ele>653.20001220703</ele>
        <time>2013-05-04T14:12:06.000Z</time>
      </trkpt>
      <trkpt lat="45.9314" lon="6.04613">
        <ele>655.20001220703</ele>
        <time>2013-05-04T14:12:10.000Z</time>
      </trkpt>
      <trkpt lat="45.93146" lon="6.04602">
        <ele>658.59997558594</ele>
        <time>2013-05-04T14:12:14.000Z</time>
      </trkpt>
      <trkpt lat="45.93156" lon="6.04597">
        <ele>660.40002441406</ele>
        <time>2013-05-04T14:12:18.000Z</time>
      </trkpt>
      <trkpt lat="45.9317" lon="6.04601">
        <ele>660.40002441406</ele>
        <time>2013-05-04T14:12:23.000Z</time>
      </trkpt>
      <trkpt lat="45.93173" lon="6.04601">
        <ele>659.59997558594</ele>
        <time>2013-05-04T14:12:24.000Z</time>
      </trkpt>
      <trkpt lat="45.93176" lon="6.04599">
        <ele>659.59997558594</ele>
        <time>2013-05-04T14:12:26.000Z</time>
      </trkpt>
      <trkpt lat="45.93183" lon="6.04602">
        <ele>662</ele>
        <time>2013-05-04T14:12:29.000Z</time>
      </trkpt>
      <trkpt lat="45.93195" lon="6.04603">
        <ele>662.79998779297</ele>
        <time>2013-05-04T14:12:33.000Z</time>
      </trkpt>
      <trkpt lat="45.93205" lon="6.04602">
        <ele>663.40002441406</ele>
        <time>2013-05-04T14:12:37.000Z</time>
      </trkpt>
      <trkpt lat="45.9321" lon="6.046">
        <ele>671.59997558594</ele>
        <time>2013-05-04T14:12:44.000Z</time>
      </trkpt>
      <trkpt lat="45.93216" lon="6.04591">
        <ele>668.59997558594</ele>
        <time>2013-05-04T14:12:47.000Z</time>
      </trkpt>
      <trkpt lat="45.93222" lon="6.04572">
        <ele>656.59997558594</ele>
        <time>2013-05-04T14:12:52.000Z</time>
      </trkpt>
      <trkpt lat="45.93228" lon="6.04565">
        <ele>645</ele>
        <time>2013-05-04T14:13:03.000Z</time>
      </trkpt>
      <trkpt lat="45.93225" lon="6.0456">
        <ele>649</ele>
        <time>2013-05-04T14:13:12.000Z</time>
      </trkpt>
      <trkpt lat="45.93225" lon="6.04557">
        <ele>650.40002441406</ele>
        <time>2013-05-04T14:13:14.000Z</time>
      </trkpt>
      <trkpt lat="45.93227" lon="6.04552">
        <ele>648.40002441406</ele>
        <time>2013-05-04T14:13:17.000Z</time>
      </trkpt>
      <trkpt lat="45.93222" lon="6.04538">
        <ele>643.20001220703</ele>
        <time>2013-05-04T14:13:22.000Z</time>
      </trkpt>
      <trkpt lat="45.93214" lon="6.04528">
        <ele>644.20001220703</ele>
        <time>2013-05-04T14:13:27.000Z</time>
      </trkpt>
      <trkpt lat="45.93216" lon="6.04528">
        <ele>646</ele>
        <time>2013-05-04T14:13:30.000Z</time>
      </trkpt>
      <trkpt lat="45.93221" lon="6.04541">
        <ele>649.40002441406</ele>
        <time>2013-05-04T14:13:35.000Z</time>
      </trkpt>
      <trkpt lat="45.93222" lon="6.04545">
        <ele>649.79998779297</ele>
        <time>2013-05-04T14:13:36.000Z</time>
      </trkpt>
      <trkpt lat="45.93234" lon="6.04569">
        <ele>653.20001220703</ele>
        <time>2013-05-04T14:13:42.000Z</time>
      </trkpt>
      <trkpt lat="45.93238" lon="6.04576">
        <ele>656.59997558594</ele>
        <time>2013-05-04T14:13:44.000Z</time>
      </trkpt>
      <trkpt lat="45.9325" lon="6.04581">
        <ele>657.59997558594</ele>
        <time>2013-05-04T14:13:48.000Z</time>
      </trkpt>
      <trkpt lat="45.93258" lon="6.04581">
        <ele>657</ele>
        <time>2013-05-04T14:13:53.000Z</time>
      </trkpt>
      <trkpt lat="45.9326" lon="6.04584">
        <ele>655.20001220703</ele>
        <time>2013-05-04T14:13:58.000Z</time>
      </trkpt>
      <trkpt lat="45.93264" lon="6.04596">
        <ele>654.59997558594</ele>
        <time>2013-05-04T14:14:03.000Z</time>
      </trkpt>
      <trkpt lat="45.93263" lon="6.04607">
        <ele>656.59997558594</ele>
        <time>2013-05-04T14:14:06.000Z</time>
      </trkpt>
      <trkpt lat="45.9326" lon="6.04619">
        <ele>662.79998779297</ele>
        <time>2013-05-04T14:14:10.000Z</time>
      </trkpt>
      <trkpt lat="45.93259" lon="6.0462">
        <ele>662.79998779297</ele>
        <time>2013-05-04T14:14:11.000Z</time>
      </trkpt>
      <trkpt lat="45.93253" lon="6.04636">
        <ele>668.59997558594</ele>
        <time>2013-05-04T14:14:17.000Z</time>
      </trkpt>
      <trkpt lat="45.93252" lon="6.04644">
        <ele>671.59997558594</ele>
        <time>2013-05-04T14:14:22.000Z</time>
      </trkpt>
      <trkpt lat="45.93249" lon="6.04649">
        <ele>672.40002441406</ele>
        <time>2013-05-04T14:14:25.000Z</time>
      </trkpt>
      <trkpt lat="45.9324" lon="6.04648">
        <ele>668.20001220703</ele>
        <time>2013-05-04T14:14:30.000Z</time>
      </trkpt>
      <trkpt lat="45.93229" lon="6.04652">
        <ele>668.59997558594</ele>
        <time>2013-05-04T14:14:35.000Z</time>
      </trkpt>
      <trkpt lat="45.93218" lon="6.04653">
        <ele>664.40002441406</ele>
        <time>2013-05-04T14:14:40.000Z</time>
      </trkpt>
      <trkpt lat="45.93215" lon="6.04659">
        <ele>665.20001220703</ele>
        <time>2013-05-04T14:14:44.000Z</time>
      </trkpt>
      <trkpt lat="45.93213" lon="6.04656">
        <ele>662.79998779297</ele>
        <time>2013-05-04T14:14:51.000Z</time>
      </trkpt>
      <trkpt lat="45.93212" lon="6.04657">
        <ele>662</ele>
        <time>2013-05-04T14:14:55.000Z</time>
      </trkpt>
      <trkpt lat="45.93201" lon="6.04653">
        <ele>659.59997558594</ele>
        <time>2013-05-04T14:15:00.000Z</time>
      </trkpt>
      <trkpt lat="45.9319" lon="6.04643">
        <ele>653.79998779297</ele>
        <time>2013-05-04T14:15:04.000Z</time>
      </trkpt>
      <trkpt lat="45.93184" lon="6.04627">
        <ele>649.40002441406</ele>
        <time>2013-05-04T14:15:08.000Z</time>
      </trkpt>
      <trkpt lat="45.93178" lon="6.04617">
        <ele>646.59997558594</ele>
        <time>2013-05-04T14:15:12.000Z</time>
      </trkpt>
      <trkpt lat="45.9317" lon="6.04614">
        <ele>645</ele>
        <time>2013-05-04T14:15:17.000Z</time>
      </trkpt>
      <trkpt lat="45.9316" lon="6.04604">
        <ele>642.20001220703</ele>
        <time>2013-05-04T14:15:23.000Z</time>
      </trkpt>
      <trkpt lat="45.93158" lon="6.04604">
        <ele>643.20001220703</ele>
        <time>2013-05-04T14:15:24.000Z</time>
      </trkpt>
      <trkpt lat="45.93145" lon="6.04612">
        <ele>649.79998779297</ele>
        <time>2013-05-04T14:15:30.000Z</time>
      </trkpt>
      <trkpt lat="45.93134" lon="6.04624">
        <ele>657</ele>
        <time>2013-05-04T14:15:34.000Z</time>
      </trkpt>
      <trkpt lat="45.93125" lon="6.04641">
        <ele>659</ele>
        <time>2013-05-04T14:15:38.000Z</time>
      </trkpt>
      <trkpt lat="45.93115" lon="6.04659">
        <ele>660</ele>
        <time>2013-05-04T14:15:43.000Z</time>
      </trkpt>
      <trkpt lat="45.93106" lon="6.04675">
        <ele>665.20001220703</ele>
        <time>2013-05-04T14:15:47.000Z</time>
      </trkpt>
      <trkpt lat="45.93093" lon="6.04691">
        <ele>669.59997558594</ele>
        <time>2013-05-04T14:15:51.000Z</time>
      </trkpt>
      <trkpt lat="45.93078" lon="6.04709">
        <ele>671.59997558594</ele>
        <time>2013-05-04T14:15:56.000Z</time>
      </trkpt>
      <trkpt lat="45.93066" lon="6.04723">
        <ele>672</ele>
        <time>2013-05-04T14:16:01.000Z</time>
      </trkpt>
      <trkpt lat="45.93055" lon="6.04735">
        <ele>667.20001220703</ele>
        <time>2013-05-04T14:16:05.000Z</time>
      </trkpt>
      <trkpt lat="45.93042" lon="6.04749">
        <ele>663.40002441406</ele>
        <time>2013-05-04T14:16:09.000Z</time>
      </trkpt>
      <trkpt lat="45.93037" lon="6.04749">
        <ele>661.40002441406</ele>
        <time>2013-05-04T14:16:10.000Z</time>
      </trkpt>
      <trkpt lat="45.93011" lon="6.04743">
        <ele>656.20001220703</ele>
        <time>2013-05-04T14:16:16.000Z</time>
      </trkpt>
      <trkpt lat="45.93001" lon="6.0474">
        <ele>657</ele>
        <time>2013-05-04T14:16:19.000Z</time>
      </trkpt>
      <trkpt lat="45.92986" lon="6.04731">
        <ele>659</ele>
        <time>2013-05-04T14:16:24.000Z</time>
      </trkpt>
      <trkpt lat="45.92983" lon="6.04731">
        <ele>661</ele>
        <time>2013-05-04T14:16:25.000Z</time>
      </trkpt>
      <trkpt lat="45.92964" lon="6.0473">
        <ele>655.59997558594</ele>
        <time>2013-05-04T14:16:31.000Z</time>
      </trkpt>
      <trkpt lat="45.92939" lon="6.04738">
        <ele>654.20001220703</ele>
        <time>2013-05-04T14:16:38.000Z</time>
      </trkpt>
      <trkpt lat="45.92921" lon="6.04743">
        <ele>654.59997558594</ele>
        <time>2013-05-04T14:16:43.000Z</time>
      </trkpt>
      <trkpt lat="45.92912" lon="6.04739">
        <ele>652.20001220703</ele>
        <time>2013-05-04T14:16:46.000Z</time>
      </trkpt>
      <trkpt lat="45.92906" lon="6.04732">
        <ele>654.20001220703</ele>
        <time>2013-05-04T14:16:51.000Z</time>
      </trkpt>
      <trkpt lat="45.929" lon="6.04721">
        <ele>656.59997558594</ele>
        <time>2013-05-04T14:16:57.000Z</time>
      </trkpt>
      <trkpt lat="45.92899" lon="6.04719">
        <ele>657.59997558594</ele>
        <time>2013-05-04T14:16:58.000Z</time>
      </trkpt>
      <trkpt lat="45.92895" lon="6.04715">
        <ele>657.59997558594</ele>
        <time>2013-05-04T14:17:01.000Z</time>
      </trkpt>
      <trkpt lat="45.92889" lon="6.04707">
        <ele>657</ele>
        <time>2013-05-04T14:17:05.000Z</time>
      </trkpt>
      <trkpt lat="45.92881" lon="6.04692">
        <ele>657.59997558594</ele>
        <time>2013-05-04T14:17:12.000Z</time>
      </trkpt>
      <trkpt lat="45.92876" lon="6.04678">
        <ele>657.59997558594</ele>
        <time>2013-05-04T14:17:17.000Z</time>
      </trkpt>
      <trkpt lat="45.92874" lon="6.04676">
        <ele>657</ele>
        <time>2013-05-04T14:17:18.000Z</time>
      </trkpt>
      <trkpt lat="45.92868" lon="6.04665">
        <ele>656.20001220703</ele>
        <time>2013-05-04T14:17:23.000Z</time>
      </trkpt>
      <trkpt lat="45.92863" lon="6.04654">
        <ele>654.59997558594</ele>
        <time>2013-05-04T14:17:28.000Z</time>
      </trkpt>
      <trkpt lat="45.92861" lon="6.04639">
        <ele>654.20001220703</ele>
        <time>2013-05-04T14:17:33.000Z</time>
      </trkpt>
      <trkpt lat="45.92869" lon="6.04625">
        <ele>660.40002441406</ele>
        <time>2013-05-04T14:17:39.000Z</time>
      </trkpt>
      <trkpt lat="45.92871" lon="6.04609">
        <ele>666.20001220703</ele>
        <time>2013-05-04T14:17:45.000Z</time>
      </trkpt>
      <trkpt lat="45.9287" lon="6.04607">
        <ele>666.20001220703</ele>
        <time>2013-05-04T14:17:46.000Z</time>
      </trkpt>
      <trkpt lat="45.92866" lon="6.04604">
        <ele>671</ele>
        <time>2013-05-04T14:17:51.000Z</time>
      </trkpt>
      <trkpt lat="45.92855" lon="6.046">
        <ele>673.40002441406</ele>
        <time>2013-05-04T14:17:56.000Z</time>
      </trkpt>
      <trkpt lat="45.92845" lon="6.04602">
        <ele>674.79998779297</ele>
        <time>2013-05-04T14:18:00.000Z</time>
      </trkpt>
      <trkpt lat="45.92837" lon="6.04602">
        <ele>677.79998779297</ele>
        <time>2013-05-04T14:18:03.000Z</time>
      </trkpt>
      <trkpt lat="45.92827" lon="6.04593">
        <ele>675.40002441406</ele>
        <time>2013-05-04T14:18:08.000Z</time>
      </trkpt>
      <trkpt lat="45.92819" lon="6.04585">
        <ele>672.40002441406</ele>
        <time>2013-05-04T14:18:13.000Z</time>
      </trkpt>
      <trkpt lat="45.92804" lon="6.04575">
        <ele>672</ele>
        <time>2013-05-04T14:18:18.000Z</time>
      </trkpt>
      <trkpt lat="45.92796" lon="6.04563">
        <ele>673</ele>
        <time>2013-05-04T14:18:22.000Z</time>
      </trkpt>
      <trkpt lat="45.92783" lon="6.04547">
        <ele>667.20001220703</ele>
        <time>2013-05-04T14:18:27.000Z</time>
      </trkpt>
      <trkpt lat="45.92771" lon="6.04537">
        <ele>664.40002441406</ele>
        <time>2013-05-04T14:18:32.000Z</time>
      </trkpt>
      <trkpt lat="45.92768" lon="6.04536">
        <ele>663.79998779297</ele>
        <time>2013-05-04T14:18:33.000Z</time>
      </trkpt>
      <trkpt lat="45.92756" lon="6.0452">
        <ele>661.40002441406</ele>
        <time>2013-05-04T14:18:38.000Z</time>
      </trkpt>
      <trkpt lat="45.92745" lon="6.04511">
        <ele>663.79998779297</ele>
        <time>2013-05-04T14:18:42.000Z</time>
      </trkpt>
      <trkpt lat="45.92725" lon="6.04507">
        <ele>662</ele>
        <time>2013-05-04T14:18:47.000Z</time>
      </trkpt>
      <trkpt lat="45.92706" lon="6.04499">
        <ele>660.40002441406</ele>
        <time>2013-05-04T14:18:52.000Z</time>
      </trkpt>
      <trkpt lat="45.92684" lon="6.04493">
        <ele>660.40002441406</ele>
        <time>2013-05-04T14:18:58.000Z</time>
      </trkpt>
      <trkpt lat="45.92672" lon="6.04487">
        <ele>657.59997558594</ele>
        <time>2013-05-04T14:19:02.000Z</time>
      </trkpt>
      <trkpt lat="45.92658" lon="6.0448">
        <ele>655.20001220703</ele>
        <time>2013-05-04T14:19:06.000Z</time>
      </trkpt>
      <trkpt lat="45.92646" lon="6.04473">
        <ele>650.79998779297</ele>
        <time>2013-05-04T14:19:10.000Z</time>
      </trkpt>
      <trkpt lat="45.92632" lon="6.04467">
        <ele>649.40002441406</ele>
        <time>2013-05-04T14:19:14.000Z</time>
      </trkpt>
      <trkpt lat="45.92621" lon="6.04462">
        <ele>647.40002441406</ele>
        <time>2013-05-04T14:19:17.000Z</time>
      </trkpt>
      <trkpt lat="45.92618" lon="6.04454">
        <ele>646.59997558594</ele>
        <time>2013-05-04T14:19:21.000Z</time>
      </trkpt>
      <trkpt lat="45.92618" lon="6.04453">
        <ele>646.59997558594</ele>
        <time>2013-05-04T14:19:22.000Z</time>
      </trkpt>
      <trkpt lat="45.92616" lon="6.04441">
        <ele>645.59997558594</ele>
        <time>2013-05-04T14:19:26.000Z</time>
      </trkpt>
      <trkpt lat="45.92608" lon="6.04421">
        <ele>642.20001220703</ele>
        <time>2013-05-04T14:19:32.000Z</time>
      </trkpt>
      <trkpt lat="45.926" lon="6.04415">
        <ele>640.20001220703</ele>
        <time>2013-05-04T14:19:35.000Z</time>
      </trkpt>
      <trkpt lat="45.92588" lon="6.04411">
        <ele>639.79998779297</ele>
        <time>2013-05-04T14:19:40.000Z</time>
      </trkpt>
      <trkpt lat="45.92585" lon="6.04406">
        <ele>638.79998779297</ele>
        <time>2013-05-04T14:19:44.000Z</time>
      </trkpt>
      <trkpt lat="45.92581" lon="6.04405">
        <ele>643.20001220703</ele>
        <time>2013-05-04T14:19:48.000Z</time>
      </trkpt>
      <trkpt lat="45.92578" lon="6.04405">
        <ele>645</ele>
        <time>2013-05-04T14:19:50.000Z</time>
      </trkpt>
      <trkpt lat="45.92577" lon="6.04407">
        <ele>650.79998779297</ele>
        <time>2013-05-04T14:19:52.000Z</time>
      </trkpt>
      <trkpt lat="45.9257" lon="6.04414">
        <ele>660.40002441406</ele>
        <time>2013-05-04T14:19:57.000Z</time>
      </trkpt>
      <trkpt lat="45.92561" lon="6.04418">
        <ele>665.79998779297</ele>
        <time>2013-05-04T14:20:02.000Z</time>
      </trkpt>
      <trkpt lat="45.92547" lon="6.04421">
        <ele>667.20001220703</ele>
        <time>2013-05-04T14:20:09.000Z</time>
      </trkpt>
      <trkpt lat="45.92539" lon="6.04422">
        <ele>668.59997558594</ele>
        <time>2013-05-04T14:20:13.000Z</time>
      </trkpt>
      <trkpt lat="45.92538" lon="6.04422">
        <ele>669.20001220703</ele>
        <time>2013-05-04T14:20:14.000Z</time>
      </trkpt>
      <trkpt lat="45.92531" lon="6.04423">
        <ele>668.59997558594</ele>
        <time>2013-05-04T14:20:19.000Z</time>
      </trkpt>
      <trkpt lat="45.9253" lon="6.04425">
        <ele>672.40002441406</ele>
        <time>2013-05-04T14:20:22.000Z</time>
      </trkpt>
      <trkpt lat="45.92527" lon="6.04439">
        <ele>674.40002441406</ele>
        <time>2013-05-04T14:20:26.000Z</time>
      </trkpt>
      <trkpt lat="45.92523" lon="6.04466">
        <ele>676.40002441406</ele>
        <time>2013-05-04T14:20:32.000Z</time>
      </trkpt>
      <trkpt lat="45.92525" lon="6.04483">
        <ele>678.20001220703</ele>
        <time>2013-05-04T14:20:36.000Z</time>
      </trkpt>
      <trkpt lat="45.92523" lon="6.0451">
        <ele>683</ele>
        <time>2013-05-04T14:20:41.000Z</time>
      </trkpt>
      <trkpt lat="45.92521" lon="6.04521">
        <ele>685.40002441406</ele>
        <time>2013-05-04T14:20:44.000Z</time>
      </trkpt>
      <trkpt lat="45.92518" lon="6.04547">
        <ele>690.79998779297</ele>
        <time>2013-05-04T14:20:50.000Z</time>
      </trkpt>
      <trkpt lat="45.92512" lon="6.04564">
        <ele>693.20001220703</ele>
        <time>2013-05-04T14:20:54.000Z</time>
      </trkpt>
      <trkpt lat="45.925" lon="6.04583">
        <ele>696.59997558594</ele>
        <time>2013-05-04T14:20:59.000Z</time>
      </trkpt>
      <trkpt lat="45.92487" lon="6.04588">
        <ele>688.79998779297</ele>
        <time>2013-05-04T14:21:03.000Z</time>
      </trkpt>
      <trkpt lat="45.92472" lon="6.0459">
        <ele>682.59997558594</ele>
        <time>2013-05-04T14:21:07.000Z</time>
      </trkpt>
      <trkpt lat="45.92448" lon="6.04598">
        <ele>670.59997558594</ele>
        <time>2013-05-04T14:21:13.000Z</time>
      </trkpt>
      <trkpt lat="45.92445" lon="6.046">
        <ele>669.59997558594</ele>
        <time>2013-05-04T14:21:14.000Z</time>
      </trkpt>
      <trkpt lat="45.9243" lon="6.04608">
        <ele>664.79998779297</ele>
        <time>2013-05-04T14:21:19.000Z</time>
      </trkpt>
      <trkpt lat="45.92426" lon="6.04609">
        <ele>662</ele>
        <time>2013-05-04T14:21:21.000Z</time>
      </trkpt>
      <trkpt lat="45.92406" lon="6.0461">
        <ele>654.59997558594</ele>
        <time>2013-05-04T14:21:26.000Z</time>
      </trkpt>
      <trkpt lat="45.92391" lon="6.04617">
        <ele>650.79998779297</ele>
        <time>2013-05-04T14:21:30.000Z</time>
      </trkpt>
      <trkpt lat="45.92377" lon="6.04623">
        <ele>649.79998779297</ele>
        <time>2013-05-04T14:21:34.000Z</time>
      </trkpt>
      <trkpt lat="45.92362" lon="6.04635">
        <ele>647.40002441406</ele>
        <time>2013-05-04T14:21:38.000Z</time>
      </trkpt>
      <trkpt lat="45.92347" lon="6.04651">
        <ele>649</ele>
        <time>2013-05-04T14:21:42.000Z</time>
      </trkpt>
      <trkpt lat="45.92335" lon="6.04667">
        <ele>649</ele>
        <time>2013-05-04T14:21:46.000Z</time>
      </trkpt>
      <trkpt lat="45.92329" lon="6.04692">
        <ele>648</ele>
        <time>2013-05-04T14:21:51.000Z</time>
      </trkpt>
      <trkpt lat="45.92326" lon="6.04719">
        <ele>649.79998779297</ele>
        <time>2013-05-04T14:21:56.000Z</time>
      </trkpt>
      <trkpt lat="45.92317" lon="6.04743">
        <ele>649.79998779297</ele>
        <time>2013-05-04T14:22:01.000Z</time>
      </trkpt>
      <trkpt lat="45.92306" lon="6.04758">
        <ele>650.40002441406</ele>
        <time>2013-05-04T14:22:05.000Z</time>
      </trkpt>
      <trkpt lat="45.92298" lon="6.04775">
        <ele>653.20001220703</ele>
        <time>2013-05-04T14:22:09.000Z</time>
      </trkpt>
      <trkpt lat="45.92298" lon="6.04778">
        <ele>654.20001220703</ele>
        <time>2013-05-04T14:22:10.000Z</time>
      </trkpt>
      <trkpt lat="45.92294" lon="6.04794">
        <ele>657.59997558594</ele>
        <time>2013-05-04T14:22:16.000Z</time>
      </trkpt>
      <trkpt lat="45.92289" lon="6.0482">
        <ele>651.40002441406</ele>
        <time>2013-05-04T14:22:21.000Z</time>
      </trkpt>
      <trkpt lat="45.92282" lon="6.04838">
        <ele>646.59997558594</ele>
        <time>2013-05-04T14:22:25.000Z</time>
      </trkpt>
      <trkpt lat="45.92279" lon="6.04865">
        <ele>640.79998779297</ele>
        <time>2013-05-04T14:22:30.000Z</time>
      </trkpt>
      <trkpt lat="45.92277" lon="6.04887">
        <ele>640.79998779297</ele>
        <time>2013-05-04T14:22:34.000Z</time>
      </trkpt>
      <trkpt lat="45.9228" lon="6.04908">
        <ele>637</ele>
        <time>2013-05-04T14:22:38.000Z</time>
      </trkpt>
      <trkpt lat="45.92284" lon="6.04934">
        <ele>633.59997558594</ele>
        <time>2013-05-04T14:22:43.000Z</time>
      </trkpt>
      <trkpt lat="45.9229" lon="6.04954">
        <ele>630.59997558594</ele>
        <time>2013-05-04T14:22:47.000Z</time>
      </trkpt>
      <trkpt lat="45.92291" lon="6.0497">
        <ele>628.79998779297</ele>
        <time>2013-05-04T14:22:51.000Z</time>
      </trkpt>
      <trkpt lat="45.92293" lon="6.04984">
        <ele>626.40002441406</ele>
        <time>2013-05-04T14:22:55.000Z</time>
      </trkpt>
      <trkpt lat="45.92297" lon="6.04994">
        <ele>628.79998779297</ele>
        <time>2013-05-04T14:23:02.000Z</time>
      </trkpt>
      <trkpt lat="45.92299" lon="6.05001">
        <ele>629.79998779297</ele>
        <time>2013-05-04T14:23:10.000Z</time>
      </trkpt>
      <trkpt lat="45.92306" lon="6.05018">
        <ele>629.20001220703</ele>
        <time>2013-05-04T14:23:15.000Z</time>
      </trkpt>
      <trkpt lat="45.9231" lon="6.05025">
        <ele>629.20001220703</ele>
        <time>2013-05-04T14:23:19.000Z</time>
      </trkpt>
      <trkpt lat="45.92319" lon="6.05013">
        <ele>628.20001220703</ele>
        <time>2013-05-04T14:23:24.000Z</time>
      </trkpt>
      <trkpt lat="45.92321" lon="6.05011">
        <ele>626.79998779297</ele>
        <time>2013-05-04T14:23:25.000Z</time>
      </trkpt>
      <trkpt lat="45.92332" lon="6.05001">
        <ele>625.40002441406</ele>
        <time>2013-05-04T14:23:30.000Z</time>
      </trkpt>
      <trkpt lat="45.92342" lon="6.04997">
        <ele>624.79998779297</ele>
        <time>2013-05-04T14:23:34.000Z</time>
      </trkpt>
      <trkpt lat="45.9235" lon="6.04994">
        <ele>626.40002441406</ele>
        <time>2013-05-04T14:23:37.000Z</time>
      </trkpt>
      <trkpt lat="45.92359" lon="6.04987">
        <ele>628.20001220703</ele>
        <time>2013-05-04T14:23:43.000Z</time>
      </trkpt>
      <trkpt lat="45.9236" lon="6.04984">
        <ele>627.20001220703</ele>
        <time>2013-05-04T14:23:46.000Z</time>
      </trkpt>
      <trkpt lat="45.9236" lon="6.04979">
        <ele>627.79998779297</ele>
        <time>2013-05-04T14:23:48.000Z</time>
      </trkpt>
      <trkpt lat="45.9236" lon="6.04972">
        <ele>628.20001220703</ele>
        <time>2013-05-04T14:23:51.000Z</time>
      </trkpt>
      <trkpt lat="45.92361" lon="6.04955">
        <ele>624</ele>
        <time>2013-05-04T14:23:55.000Z</time>
      </trkpt>
      <trkpt lat="45.92365" lon="6.04941">
        <ele>620.59997558594</ele>
        <time>2013-05-04T14:24:00.000Z</time>
      </trkpt>
      <trkpt lat="45.92365" lon="6.04941">
        <ele>623.40002441406</ele>
        <time>2013-05-04T14:24:05.000Z</time>
      </trkpt>
      <trkpt lat="45.92365" lon="6.04949">
        <ele>629.20001220703</ele>
        <time>2013-05-04T14:24:11.000Z</time>
      </trkpt>
      <trkpt lat="45.92366" lon="6.04953">
        <ele>628.79998779297</ele>
        <time>2013-05-04T14:24:14.000Z</time>
      </trkpt>
      <trkpt lat="45.92374" lon="6.04966">
        <ele>628.20001220703</ele>
        <time>2013-05-04T14:24:20.000Z</time>
      </trkpt>
      <trkpt lat="45.92381" lon="6.04971">
        <ele>624.79998779297</ele>
        <time>2013-05-04T14:24:23.000Z</time>
      </trkpt>
      <trkpt lat="45.92389" lon="6.04976">
        <ele>625.40002441406</ele>
        <time>2013-05-04T14:24:27.000Z</time>
      </trkpt>
      <trkpt lat="45.92392" lon="6.04976">
        <ele>627.20001220703</ele>
        <time>2013-05-04T14:24:34.000Z</time>
      </trkpt>
      <trkpt lat="45.92397" lon="6.04984">
        <ele>625.40002441406</ele>
        <time>2013-05-04T14:24:41.000Z</time>
      </trkpt>
      <trkpt lat="45.924" lon="6.04988">
        <ele>624</ele>
        <time>2013-05-04T14:24:47.000Z</time>
      </trkpt>
      <trkpt lat="45.92402" lon="6.04991">
        <ele>623.40002441406</ele>
        <time>2013-05-04T14:24:51.000Z</time>
      </trkpt>
      <trkpt lat="45.9241" lon="6.04998">
        <ele>622.40002441406</ele>
        <time>2013-05-04T14:24:56.000Z</time>
      </trkpt>
      <trkpt lat="45.92413" lon="6.04998">
        <ele>621.59997558594</ele>
        <time>2013-05-04T14:24:59.000Z</time>
      </trkpt>
      <trkpt lat="45.92416" lon="6.05003">
        <ele>619.59997558594</ele>
        <time>2013-05-04T14:25:04.000Z</time>
      </trkpt>
      <trkpt lat="45.92419" lon="6.05005">
        <ele>618.20001220703</ele>
        <time>2013-05-04T14:25:09.000Z</time>
      </trkpt>
      <trkpt lat="45.9242" lon="6.05005">
        <ele>618.20001220703</ele>
        <time>2013-05-04T14:25:10.000Z</time>
      </trkpt>
      <trkpt lat="45.92427" lon="6.04998">
        <ele>619.20001220703</ele>
        <time>2013-05-04T14:25:14.000Z</time>
      </trkpt>
      <trkpt lat="45.92437" lon="6.04988">
        <ele>622.40002441406</ele>
        <time>2013-05-04T14:25:19.000Z</time>
      </trkpt>
      <trkpt lat="45.92447" lon="6.04979">
        <ele>623.40002441406</ele>
        <time>2013-05-04T14:25:24.000Z</time>
      </trkpt>
      <trkpt lat="45.92458" lon="6.04971">
        <ele>626.40002441406</ele>
        <time>2013-05-04T14:25:28.000Z</time>
      </trkpt>
      <trkpt lat="45.92469" lon="6.04961">
        <ele>629.20001220703</ele>
        <time>2013-05-04T14:25:33.000Z</time>
      </trkpt>
      <trkpt lat="45.92472" lon="6.04956">
        <ele>629.20001220703</ele>
        <time>2013-05-04T14:25:35.000Z</time>
      </trkpt>
      <trkpt lat="45.92483" lon="6.04935">
        <ele>627.20001220703</ele>
        <time>2013-05-04T14:25:42.000Z</time>
      </trkpt>
      <trkpt lat="45.92492" lon="6.04921">
        <ele>626.79998779297</ele>
        <time>2013-05-04T14:25:48.000Z</time>
      </trkpt>
      <trkpt lat="45.92498" lon="6.04907">
        <ele>627.20001220703</ele>
        <time>2013-05-04T14:25:53.000Z</time>
      </trkpt>
      <trkpt lat="45.92504" lon="6.04898">
        <ele>625.40002441406</ele>
        <time>2013-05-04T14:25:56.000Z</time>
      </trkpt>
      <trkpt lat="45.92515" lon="6.04893">
        <ele>625.40002441406</ele>
        <time>2013-05-04T14:26:00.000Z</time>
      </trkpt>
      <trkpt lat="45.92529" lon="6.04891">
        <ele>627.20001220703</ele>
        <time>2013-05-04T14:26:05.000Z</time>
      </trkpt>
      <trkpt lat="45.92542" lon="6.0489">
        <ele>631.20001220703</ele>
        <time>2013-05-04T14:26:09.000Z</time>
      </trkpt>
      <trkpt lat="45.92552" lon="6.04892">
        <ele>631.20001220703</ele>
        <time>2013-05-04T14:26:12.000Z</time>
      </trkpt>
      <trkpt lat="45.92568" lon="6.04893">
        <ele>632.59997558594</ele>
        <time>2013-05-04T14:26:17.000Z</time>
      </trkpt>
      <trkpt lat="45.92581" lon="6.04891">
        <ele>634</ele>
        <time>2013-05-04T14:26:21.000Z</time>
      </trkpt>
      <trkpt lat="45.92593" lon="6.04887">
        <ele>636</ele>
        <time>2013-05-04T14:26:25.000Z</time>
      </trkpt>
      <trkpt lat="45.92596" lon="6.04886">
        <ele>636.40002441406</ele>
        <time>2013-05-04T14:26:26.000Z</time>
      </trkpt>
      <trkpt lat="45.9261" lon="6.04888">
        <ele>637.40002441406</ele>
        <time>2013-05-04T14:26:31.000Z</time>
      </trkpt>
      <trkpt lat="45.9262" lon="6.04889">
        <ele>638.79998779297</ele>
        <time>2013-05-04T14:26:35.000Z</time>
      </trkpt>
      <trkpt lat="45.92631" lon="6.0489">
        <ele>638.79998779297</ele>
        <time>2013-05-04T14:26:39.000Z</time>
      </trkpt>
      <trkpt lat="45.92634" lon="6.0489">
        <ele>639.40002441406</ele>
        <time>2013-05-04T14:26:40.000Z</time>
      </trkpt>
      <trkpt lat="45.92648" lon="6.04884">
        <ele>638.40002441406</ele>
        <time>2013-05-04T14:26:45.000Z</time>
      </trkpt>
      <trkpt lat="45.92658" lon="6.04872">
        <ele>638.79998779297</ele>
        <time>2013-05-04T14:26:51.000Z</time>
      </trkpt>
      <trkpt lat="45.92669" lon="6.04865">
        <ele>639.79998779297</ele>
        <time>2013-05-04T14:26:56.000Z</time>
      </trkpt>
      <trkpt lat="45.92672" lon="6.04864">
        <ele>639.40002441406</ele>
        <time>2013-05-04T14:26:57.000Z</time>
      </trkpt>
      <trkpt lat="45.92681" lon="6.04862">
        <ele>639.40002441406</ele>
        <time>2013-05-04T14:27:00.000Z</time>
      </trkpt>
      <trkpt lat="45.92688" lon="6.0485">
        <ele>640.79998779297</ele>
        <time>2013-05-04T14:27:06.000Z</time>
      </trkpt>
      <trkpt lat="45.92696" lon="6.04837">
        <ele>639.79998779297</ele>
        <time>2013-05-04T14:27:11.000Z</time>
      </trkpt>
      <trkpt lat="45.92697" lon="6.04828">
        <ele>640.20001220703</ele>
        <time>2013-05-04T14:27:15.000Z</time>
      </trkpt>
      <trkpt lat="45.92698" lon="6.04821">
        <ele>641.20001220703</ele>
        <time>2013-05-04T14:27:19.000Z</time>
      </trkpt>
      <trkpt lat="45.927" lon="6.04808">
        <ele>640.79998779297</ele>
        <time>2013-05-04T14:27:24.000Z</time>
      </trkpt>
      <trkpt lat="45.92701" lon="6.04806">
        <ele>639.79998779297</ele>
        <time>2013-05-04T14:27:25.000Z</time>
      </trkpt>
      <trkpt lat="45.92703" lon="6.04802">
        <ele>642.20001220703</ele>
        <time>2013-05-04T14:27:29.000Z</time>
      </trkpt>
      <trkpt lat="45.92704" lon="6.04806">
        <ele>644.20001220703</ele>
        <time>2013-05-04T14:27:35.000Z</time>
      </trkpt>
      <trkpt lat="45.92706" lon="6.04809">
        <ele>642.59997558594</ele>
        <time>2013-05-04T14:27:37.000Z</time>
      </trkpt>
      <trkpt lat="45.92709" lon="6.0482">
        <ele>644.59997558594</ele>
        <time>2013-05-04T14:27:42.000Z</time>
      </trkpt>
      <trkpt lat="45.92712" lon="6.04828">
        <ele>646</ele>
        <time>2013-05-04T14:27:45.000Z</time>
      </trkpt>
      <trkpt lat="45.92716" lon="6.04838">
        <ele>648.40002441406</ele>
        <time>2013-05-04T14:27:49.000Z</time>
      </trkpt>
      <trkpt lat="45.92724" lon="6.04843">
        <ele>650.79998779297</ele>
        <time>2013-05-04T14:27:52.000Z</time>
      </trkpt>
      <trkpt lat="45.92736" lon="6.04848">
        <ele>653.79998779297</ele>
        <time>2013-05-04T14:27:57.000Z</time>
      </trkpt>
      <trkpt lat="45.92742" lon="6.04859">
        <ele>656.59997558594</ele>
        <time>2013-05-04T14:28:00.000Z</time>
      </trkpt>
      <trkpt lat="45.92749" lon="6.04871">
        <ele>657</ele>
        <time>2013-05-04T14:28:04.000Z</time>
      </trkpt>
      <trkpt lat="45.92754" lon="6.04891">
        <ele>662.40002441406</ele>
        <time>2013-05-04T14:28:09.000Z</time>
      </trkpt>
      <trkpt lat="45.92757" lon="6.04905">
        <ele>663.40002441406</ele>
        <time>2013-05-04T14:28:13.000Z</time>
      </trkpt>
      <trkpt lat="45.92757" lon="6.04913">
        <ele>664.79998779297</ele>
        <time>2013-05-04T14:28:15.000Z</time>
      </trkpt>
      <trkpt lat="45.92752" lon="6.04927">
        <ele>660</ele>
        <time>2013-05-04T14:28:19.000Z</time>
      </trkpt>
      <trkpt lat="45.92755" lon="6.04935">
        <ele>657</ele>
        <time>2013-05-04T14:28:24.000Z</time>
      </trkpt>
      <trkpt lat="45.92752" lon="6.04943">
        <ele>656.59997558594</ele>
        <time>2013-05-04T14:28:28.000Z</time>
      </trkpt>
      <trkpt lat="45.92751" lon="6.04953">
        <ele>655.20001220703</ele>
        <time>2013-05-04T14:28:34.000Z</time>
      </trkpt>
      <trkpt lat="45.92749" lon="6.04956">
        <ele>653.20001220703</ele>
        <time>2013-05-04T14:28:37.000Z</time>
      </trkpt>
      <trkpt lat="45.9275" lon="6.04958">
        <ele>648.40002441406</ele>
        <time>2013-05-04T14:28:40.000Z</time>
      </trkpt>
      <trkpt lat="45.92761" lon="6.04954">
        <ele>643.20001220703</ele>
        <time>2013-05-04T14:28:45.000Z</time>
      </trkpt>
      <trkpt lat="45.92763" lon="6.04955">
        <ele>642.59997558594</ele>
        <time>2013-05-04T14:28:46.000Z</time>
      </trkpt>
      <trkpt lat="45.92761" lon="6.04977">
        <ele>637.40002441406</ele>
        <time>2013-05-04T14:28:52.000Z</time>
      </trkpt>
      <trkpt lat="45.9276" lon="6.04981">
        <ele>636</ele>
        <time>2013-05-04T14:28:53.000Z</time>
      </trkpt>
      <trkpt lat="45.92754" lon="6.05011">
        <ele>634</ele>
        <time>2013-05-04T14:28:58.000Z</time>
      </trkpt>
      <trkpt lat="45.92755" lon="6.05015">
        <ele>632.59997558594</ele>
        <time>2013-05-04T14:28:59.000Z</time>
      </trkpt>
      <trkpt lat="45.92772" lon="6.05026">
        <ele>627.79998779297</ele>
        <time>2013-05-04T14:29:04.000Z</time>
      </trkpt>
      <trkpt lat="45.92777" lon="6.05027">
        <ele>627.79998779297</ele>
        <time>2013-05-04T14:29:05.000Z</time>
      </trkpt>
      <trkpt lat="45.928" lon="6.05038">
        <ele>624</ele>
        <time>2013-05-04T14:29:11.000Z</time>
      </trkpt>
      <trkpt lat="45.92816" lon="6.05042">
        <ele>620.59997558594</ele>
        <time>2013-05-04T14:29:15.000Z</time>
      </trkpt>
      <trkpt lat="45.92831" lon="6.05048">
        <ele>617.59997558594</ele>
        <time>2013-05-04T14:29:19.000Z</time>
      </trkpt>
      <trkpt lat="45.92852" lon="6.05057">
        <ele>615.79998779297</ele>
        <time>2013-05-04T14:29:25.000Z</time>
      </trkpt>
      <trkpt lat="45.92858" lon="6.05061">
        <ele>615.20001220703</ele>
        <time>2013-05-04T14:29:27.000Z</time>
      </trkpt>
      <trkpt lat="45.92866" lon="6.0509">
        <ele>617.59997558594</ele>
        <time>2013-05-04T14:29:33.000Z</time>
      </trkpt>
      <trkpt lat="45.92866" lon="6.05089">
        <ele>619.20001220703</ele>
        <time>2013-05-04T14:29:36.000Z</time>
      </trkpt>
      <trkpt lat="45.92879" lon="6.05097">
        <ele>618.59997558594</ele>
        <time>2013-05-04T14:29:41.000Z</time>
      </trkpt>
      <trkpt lat="45.92895" lon="6.05111">
        <ele>617.20001220703</ele>
        <time>2013-05-04T14:29:47.000Z</time>
      </trkpt>
      <trkpt lat="45.92901" lon="6.05114">
        <ele>616.79998779297</ele>
        <time>2013-05-04T14:29:49.000Z</time>
      </trkpt>
      <trkpt lat="45.92916" lon="6.05109">
        <ele>617.20001220703</ele>
        <time>2013-05-04T14:29:54.000Z</time>
      </trkpt>
      <trkpt lat="45.9293" lon="6.05108">
        <ele>618.20001220703</ele>
        <time>2013-05-04T14:29:58.000Z</time>
      </trkpt>
      <trkpt lat="45.92946" lon="6.05104">
        <ele>621.59997558594</ele>
        <time>2013-05-04T14:30:04.000Z</time>
      </trkpt>
      <trkpt lat="45.92959" lon="6.05099">
        <ele>624</ele>
        <time>2013-05-04T14:30:09.000Z</time>
      </trkpt>
      <trkpt lat="45.92967" lon="6.05093">
        <ele>625.79998779297</ele>
        <time>2013-05-04T14:30:13.000Z</time>
      </trkpt>
      <trkpt lat="45.92975" lon="6.05089">
        <ele>627.79998779297</ele>
        <time>2013-05-04T14:30:17.000Z</time>
      </trkpt>
      <trkpt lat="45.92987" lon="6.05085">
        <ele>632.20001220703</ele>
        <time>2013-05-04T14:30:22.000Z</time>
      </trkpt>
      <trkpt lat="45.92993" lon="6.05084">
        <ele>630.59997558594</ele>
        <time>2013-05-04T14:30:26.000Z</time>
      </trkpt>
      <trkpt lat="45.92998" lon="6.05083">
        <ele>629.79998779297</ele>
        <time>2013-05-04T14:30:31.000Z</time>
      </trkpt>
      <trkpt lat="45.9301" lon="6.05086">
        <ele>625.79998779297</ele>
        <time>2013-05-04T14:30:36.000Z</time>
      </trkpt>
      <trkpt lat="45.93017" lon="6.0509">
        <ele>628.20001220703</ele>
        <time>2013-05-04T14:30:40.000Z</time>
      </trkpt>
      <trkpt lat="45.93024" lon="6.05093">
        <ele>626.79998779297</ele>
        <time>2013-05-04T14:30:45.000Z</time>
      </trkpt>
      <trkpt lat="45.9303" lon="6.05103">
        <ele>627.20001220703</ele>
        <time>2013-05-04T14:30:53.000Z</time>
      </trkpt>
      <trkpt lat="45.93034" lon="6.05109">
        <ele>628.20001220703</ele>
        <time>2013-05-04T14:30:57.000Z</time>
      </trkpt>
      <trkpt lat="45.93037" lon="6.05112">
        <ele>627.79998779297</ele>
        <time>2013-05-04T14:31:01.000Z</time>
      </trkpt>
      <trkpt lat="45.9304" lon="6.05116">
        <ele>630.59997558594</ele>
        <time>2013-05-04T14:31:05.000Z</time>
      </trkpt>
      <trkpt lat="45.93041" lon="6.05117">
        <ele>631.59997558594</ele>
        <time>2013-05-04T14:31:06.000Z</time>
      </trkpt>
      <trkpt lat="45.93047" lon="6.0512">
        <ele>635.40002441406</ele>
        <time>2013-05-04T14:31:11.000Z</time>
      </trkpt>
      <trkpt lat="45.93051" lon="6.0512">
        <ele>636.40002441406</ele>
        <time>2013-05-04T14:31:17.000Z</time>
      </trkpt>
      <trkpt lat="45.93057" lon="6.0512">
        <ele>632.59997558594</ele>
        <time>2013-05-04T14:31:21.000Z</time>
      </trkpt>
      <trkpt lat="45.93058" lon="6.05126">
        <ele>633</ele>
        <time>2013-05-04T14:31:25.000Z</time>
      </trkpt>
      <trkpt lat="45.93058" lon="6.05127">
        <ele>633</ele>
        <time>2013-05-04T14:31:26.000Z</time>
      </trkpt>
      <trkpt lat="45.93063" lon="6.05134">
        <ele>630.59997558594</ele>
        <time>2013-05-04T14:31:30.000Z</time>
      </trkpt>
      <trkpt lat="45.93068" lon="6.05141">
        <ele>628.20001220703</ele>
        <time>2013-05-04T14:31:34.000Z</time>
      </trkpt>
      <trkpt lat="45.93075" lon="6.05156">
        <ele>629.20001220703</ele>
        <time>2013-05-04T14:31:39.000Z</time>
      </trkpt>
      <trkpt lat="45.93077" lon="6.0516">
        <ele>628.20001220703</ele>
        <time>2013-05-04T14:31:41.000Z</time>
      </trkpt>
      <trkpt lat="45.93082" lon="6.05168">
        <ele>626.40002441406</ele>
        <time>2013-05-04T14:31:46.000Z</time>
      </trkpt>
      <trkpt lat="45.93081" lon="6.05172">
        <ele>626.40002441406</ele>
        <time>2013-05-04T14:31:48.000Z</time>
      </trkpt>
      <trkpt lat="45.93081" lon="6.05175">
        <ele>624</ele>
        <time>2013-05-04T14:31:54.000Z</time>
      </trkpt>
      <trkpt lat="45.93078" lon="6.05186">
        <ele>621</ele>
        <time>2013-05-04T14:32:11.000Z</time>
      </trkpt>
      <trkpt lat="45.93081" lon="6.05203">
        <ele>621</ele>
        <time>2013-05-04T14:32:15.000Z</time>
      </trkpt>
      <trkpt lat="45.93081" lon="6.05231">
        <ele>620</ele>
        <time>2013-05-04T14:32:20.000Z</time>
      </trkpt>
      <trkpt lat="45.93085" lon="6.05259">
        <ele>619.59997558594</ele>
        <time>2013-05-04T14:32:25.000Z</time>
      </trkpt>
      <trkpt lat="45.93089" lon="6.05284">
        <ele>616.79998779297</ele>
        <time>2013-05-04T14:32:30.000Z</time>
      </trkpt>
      <trkpt lat="45.93093" lon="6.0531">
        <ele>611.40002441406</ele>
        <time>2013-05-04T14:32:35.000Z</time>
      </trkpt>
      <trkpt lat="45.93093" lon="6.05326">
        <ele>610.40002441406</ele>
        <time>2013-05-04T14:32:38.000Z</time>
      </trkpt>
      <trkpt lat="45.9309" lon="6.05343">
        <ele>608</ele>
        <time>2013-05-04T14:32:42.000Z</time>
      </trkpt>
      <trkpt lat="45.93083" lon="6.05358">
        <ele>605.20001220703</ele>
        <time>2013-05-04T14:32:46.000Z</time>
      </trkpt>
      <trkpt lat="45.93074" lon="6.05363">
        <ele>604.20001220703</ele>
        <time>2013-05-04T14:32:49.000Z</time>
      </trkpt>
      <trkpt lat="45.93065" lon="6.0537">
        <ele>602.40002441406</ele>
        <time>2013-05-04T14:32:52.000Z</time>
      </trkpt>
      <trkpt lat="45.93063" lon="6.05379">
        <ele>600.79998779297</ele>
        <time>2013-05-04T14:32:54.000Z</time>
      </trkpt>
      <trkpt lat="45.93064" lon="6.0538">
        <ele>597</ele>
        <time>2013-05-04T14:32:58.000Z</time>
      </trkpt>
      <trkpt lat="45.93065" lon="6.05384">
        <ele>596.59997558594</ele>
        <time>2013-05-04T14:33:00.000Z</time>
      </trkpt>
      <trkpt lat="45.93075" lon="6.05393">
        <ele>595</ele>
        <time>2013-05-04T14:33:05.000Z</time>
      </trkpt>
      <trkpt lat="45.93094" lon="6.05393">
        <ele>596.59997558594</ele>
        <time>2013-05-04T14:33:10.000Z</time>
      </trkpt>
      <trkpt lat="45.93109" lon="6.05398">
        <ele>597.40002441406</ele>
        <time>2013-05-04T14:33:14.000Z</time>
      </trkpt>
      <trkpt lat="45.93129" lon="6.05401">
        <ele>598</ele>
        <time>2013-05-04T14:33:19.000Z</time>
      </trkpt>
      <trkpt lat="45.93144" lon="6.05405">
        <ele>599</ele>
        <time>2013-05-04T14:33:23.000Z</time>
      </trkpt>
      <trkpt lat="45.93159" lon="6.05408">
        <ele>599</ele>
        <time>2013-05-04T14:33:27.000Z</time>
      </trkpt>
      <trkpt lat="45.93175" lon="6.05414">
        <ele>601.40002441406</ele>
        <time>2013-05-04T14:33:31.000Z</time>
      </trkpt>
      <trkpt lat="45.93182" lon="6.05424">
        <ele>601.40002441406</ele>
        <time>2013-05-04T14:33:34.000Z</time>
      </trkpt>
      <trkpt lat="45.93187" lon="6.05425">
        <ele>601.79998779297</ele>
        <time>2013-05-04T14:33:38.000Z</time>
      </trkpt>
      <trkpt lat="45.93188" lon="6.05426">
        <ele>601.79998779297</ele>
        <time>2013-05-04T14:33:39.000Z</time>
      </trkpt>
      <trkpt lat="45.93194" lon="6.05431">
        <ele>603.79998779297</ele>
        <time>2013-05-04T14:33:43.000Z</time>
      </trkpt>
      <trkpt lat="45.93207" lon="6.05444">
        <ele>602.40002441406</ele>
        <time>2013-05-04T14:33:48.000Z</time>
      </trkpt>
      <trkpt lat="45.93221" lon="6.05445">
        <ele>602.79998779297</ele>
        <time>2013-05-04T14:33:52.000Z</time>
      </trkpt>
      <trkpt lat="45.93227" lon="6.05439">
        <ele>605.20001220703</ele>
        <time>2013-05-04T14:33:56.000Z</time>
      </trkpt>
      <trkpt lat="45.93231" lon="6.05436">
        <ele>609</ele>
        <time>2013-05-04T14:34:03.000Z</time>
      </trkpt>
      <trkpt lat="45.9323" lon="6.05434">
        <ele>609.59997558594</ele>
        <time>2013-05-04T14:34:07.000Z</time>
      </trkpt>
      <trkpt lat="45.93229" lon="6.05433">
        <ele>610</ele>
        <time>2013-05-04T14:34:11.000Z</time>
      </trkpt>
      <trkpt lat="45.93232" lon="6.0543">
        <ele>607.59997558594</ele>
        <time>2013-05-04T14:34:18.000Z</time>
      </trkpt>
      <trkpt lat="45.93233" lon="6.05427">
        <ele>609.59997558594</ele>
        <time>2013-05-04T14:34:22.000Z</time>
      </trkpt>
      <trkpt lat="45.93234" lon="6.05418">
        <ele>609</ele>
        <time>2013-05-04T14:34:30.000Z</time>
      </trkpt>
      <trkpt lat="45.93235" lon="6.05412">
        <ele>606.59997558594</ele>
        <time>2013-05-04T14:34:33.000Z</time>
      </trkpt>
      <trkpt lat="45.93236" lon="6.05409">
        <ele>605.59997558594</ele>
        <time>2013-05-04T14:34:35.000Z</time>
      </trkpt>
      <trkpt lat="45.93238" lon="6.054">
        <ele>604.79998779297</ele>
        <time>2013-05-04T14:34:40.000Z</time>
      </trkpt>
      <trkpt lat="45.93237" lon="6.05399">
        <ele>605.59997558594</ele>
        <time>2013-05-04T14:34:42.000Z</time>
      </trkpt>
      <trkpt lat="45.93238" lon="6.05394">
        <ele>605.20001220703</ele>
        <time>2013-05-04T14:34:50.000Z</time>
      </trkpt>
      <trkpt lat="45.93237" lon="6.05389">
        <ele>606.59997558594</ele>
        <time>2013-05-04T14:35:02.000Z</time>
      </trkpt>
      <trkpt lat="45.93237" lon="6.05387">
        <ele>608.59997558594</ele>
        <time>2013-05-04T14:35:06.000Z</time>
      </trkpt>
      <trkpt lat="45.93238" lon="6.05381">
        <ele>612.40002441406</ele>
        <time>2013-05-04T14:35:12.000Z</time>
      </trkpt>
      <trkpt lat="45.93239" lon="6.05379">
        <ele>612.79998779297</ele>
        <time>2013-05-04T14:35:13.000Z</time>
      </trkpt>
      <trkpt lat="45.93245" lon="6.0538">
        <ele>613.40002441406</ele>
        <time>2013-05-04T14:35:16.000Z</time>
      </trkpt>
      <trkpt lat="45.93249" lon="6.05393">
        <ele>611.40002441406</ele>
        <time>2013-05-04T14:35:20.000Z</time>
      </trkpt>
      <trkpt lat="45.93251" lon="6.05409">
        <ele>610.40002441406</ele>
        <time>2013-05-04T14:35:26.000Z</time>
      </trkpt>
      <trkpt lat="45.93251" lon="6.05413">
        <ele>607.59997558594</ele>
        <time>2013-05-04T14:35:32.000Z</time>
      </trkpt>
      <trkpt lat="45.9325" lon="6.05427">
        <ele>609</ele>
        <time>2013-05-04T14:35:36.000Z</time>
      </trkpt>
      <trkpt lat="45.93257" lon="6.05449">
        <ele>607.59997558594</ele>
        <time>2013-05-04T14:35:41.000Z</time>
      </trkpt>
      <trkpt lat="45.93273" lon="6.05447">
        <ele>607.59997558594</ele>
        <time>2013-05-04T14:35:45.000Z</time>
      </trkpt>
      <trkpt lat="45.93288" lon="6.05446">
        <ele>609.59997558594</ele>
        <time>2013-05-04T14:35:49.000Z</time>
      </trkpt>
      <trkpt lat="45.93295" lon="6.05446">
        <ele>610.40002441406</ele>
        <time>2013-05-04T14:35:51.000Z</time>
      </trkpt>
      <trkpt lat="45.9332" lon="6.05447">
        <ele>611</ele>
        <time>2013-05-04T14:35:58.000Z</time>
      </trkpt>
      <trkpt lat="45.93335" lon="6.05449">
        <ele>613.79998779297</ele>
        <time>2013-05-04T14:36:03.000Z</time>
      </trkpt>
      <trkpt lat="45.93336" lon="6.0545">
        <ele>613.40002441406</ele>
        <time>2013-05-04T14:36:04.000Z</time>
      </trkpt>
      <trkpt lat="45.93339" lon="6.05465">
        <ele>612.40002441406</ele>
        <time>2013-05-04T14:36:09.000Z</time>
      </trkpt>
      <trkpt lat="45.9334" lon="6.05471">
        <ele>612.79998779297</ele>
        <time>2013-05-04T14:36:14.000Z</time>
      </trkpt>
      <trkpt lat="45.93341" lon="6.05472">
        <ele>612.40002441406</ele>
        <time>2013-05-04T14:36:19.000Z</time>
      </trkpt>
      <trkpt lat="45.93356" lon="6.05479">
        <ele>604.20001220703</ele>
        <time>2013-05-04T14:36:25.000Z</time>
      </trkpt>
      <trkpt lat="45.93372" lon="6.05489">
        <ele>604.20001220703</ele>
        <time>2013-05-04T14:36:30.000Z</time>
      </trkpt>
      <trkpt lat="45.93388" lon="6.05501">
        <ele>605.59997558594</ele>
        <time>2013-05-04T14:36:34.000Z</time>
      </trkpt>
      <trkpt lat="45.93394" lon="6.0551">
        <ele>607.20001220703</ele>
        <time>2013-05-04T14:36:36.000Z</time>
      </trkpt>
      <trkpt lat="45.93397" lon="6.05517">
        <ele>608</ele>
        <time>2013-05-04T14:36:38.000Z</time>
      </trkpt>
    </trkseg>
  </trk>
</gpx>